Latest Weather Observations for Paraburdoo

IDW60801

Issued at 7:35 pm WST Friday 19 September 2014 (issued every 30 minutes, with the page automatically refreshed every 10 minutes)

About weather observations | Map of weather stations | Latest weather observations for WA | Other Formats
Station Details ID: 007185 Name: PARABURDOO AERO Lat: -23.17 Lon: 117.75 Height: 423.7 m
Data from the previous 72 hours. | See also: Recent months at Paraburdoo
Date/Time
WST
Temp
°C
App
Temp
°C
Dew
Point
Rel
Hum
%
Delta-T
°C
Wind Press
QNH
hPa
Press
MSL
hPa
Rain
since 9 am
mm
Dir
 
Spd
km/h
Gust
km/h
Spd
kts
Gust
kts
19/07:30pm 28.4 23.8 -3.7 12 14.5 W 11 13 6 7 1016.6 1014.7 0.0
19/07:00pm 29.0 24.7 -4.4 11 14.9 NW 9 13 5 7 1016.4 1014.5 0.0
19/06:30pm 30.2 26.0 -3.5 11 15.5 WNW 9 13 5 7 1015.8 1013.9 0.0
19/06:00pm 32.2 28.1 -3.2 10 16.6 W 9 13 5 7 1015.2 1013.3 0.0
19/05:30pm 32.9 27.9 -4.1 9 17.2 W 13 17 7 9 1014.9 1013.0 0.0
19/05:00pm 33.3 28.7 -3.8 9 17.3 W 11 19 6 10 1014.7 1012.8 0.0
19/04:30pm 34.1 30.0 -3.2 9 17.7 ESE 9 15 5 8 1014.6 1012.7 0.0
19/04:00pm 34.0 28.4 -3.3 9 17.7 NNW 17 22 9 12 1014.5 1012.6 0.0
19/03:30pm 34.1 29.8 -1.8 10 17.4 SSW 11 19 6 10 1014.6 1012.7 0.0
19/03:00pm 33.5 29.9 -2.3 10 17.2 E 7 15 4 8 1014.9 1013.0 0.0
19/02:30pm 34.0 29.5 -3.3 9 17.7 W 11 17 6 9 1015.0 1013.1 0.0
19/02:00pm 32.8 28.7 -2.8 10 16.9 W 9 19 5 10 1015.4 1013.5 0.0
19/01:30pm 33.4 27.9 -2.3 10 17.1 N 17 28 9 15 1015.7 1013.8 0.0
19/01:00pm 32.4 27.3 -1.8 11 16.4 WNW 15 32 8 17 1016.4 1014.5 0.0
19/12:30pm 32.0 27.0 -0.9 12 16.0 E 15 28 8 15 1016.9 1015.0 0.0
19/12:00pm 31.8 27.7 0.0 13 15.7 NE 11 20 6 11 1017.6 1015.7 0.0
19/11:30am 31.1 26.7 0.5 14 15.1 E 13 22 7 12 1018.2 1016.4 0.0
19/11:00am 29.9 25.9 0.5 15 14.4 NE 11 19 6 10 1018.7 1016.8 0.0
19/10:30am 29.4 25.5 1.0 16 14.0 ESE 11 24 6 13 1019.0 1017.1 0.0
19/10:00am 28.8 25.7 1.3 17 13.6 ESE 7 15 4 8 1019.4 1017.5 0.0
19/09:30am 27.2 23.8 1.6 19 12.6 ENE 9 13 5 7 1019.6 1017.7 0.0
19/09:00am 25.2 23.1 2.0 22 11.3 SSE 2 6 1 3 1019.8 1017.9 0.0
19/08:30am 24.1 22.0 1.7 23 10.8 SE 2 7 1 4 1019.7 1017.8 0.0
19/08:00am 22.6 19.5 0.4 23 10.3 NNE 6 7 3 4 1019.8 1017.9 0.0
19/07:30am 20.7 17.4 0.0 25 9.4 ENE 7 9 4 5 1019.5 1017.6 0.0
19/07:00am 16.8 13.4 -1.8 28 7.9 ENE 6 7 3 4 1019.1 1017.2 0.0
19/06:30am 14.2 10.5 -2.7 31 6.8 ENE 7 9 4 5 1018.9 1017.0 0.0
19/06:00am 13.6 9.9 -3.2 31 6.7 ENE 7 9 4 5 1018.8 1016.9 0.0
19/05:30am 14.5 10.9 -2.4 31 6.9 ENE 7 9 4 5 1018.6 1016.7 0.0
19/05:00am 14.6 10.5 -2.8 30 7.0 NNE 9 11 5 6 1018.2 1016.4 0.0
19/04:30am 14.5 10.8 -3.3 29 7.1 E 7 9 4 5 1017.9 1016.0 0.0
19/04:00am 15.2 11.8 -1.8 31 7.1 E 6 7 3 4 1017.6 1015.7 0.0
19/03:30am 15.2 11.1 -2.7 29 7.3 ESE 9 11 5 6 1017.4 1015.5 0.0
19/03:00am 17.4 13.0 -2.3 26 8.3 NNE 11 13 6 7 1017.4 1015.5 0.0
19/02:30am 16.7 12.7 -2.4 27 8.0 ENE 9 11 5 6 1017.4 1015.5 0.0
19/02:00am 17.2 13.2 -2.4 26 8.2 E 9 9 5 5 1017.6 1015.7 0.0
19/01:30am 17.1 13.1 -2.5 26 8.2 E 9 11 5 6 1017.7 1015.8 0.0
19/01:00am 17.6 14.8 -3.2 24 8.6 WNW 2 7 1 4 1017.7 1015.8 0.0
19/12:30am 19.7 15.8 -1.4 24 9.2 NW 9 11 5 6 1017.8 1015.9 0.0
19/12:00am 20.0 16.1 -1.7 23 9.5 WNW 9 11 5 6 1018.0 1016.1 0.0
 
Date/Time
WST
Temp
°C
App
Temp
°C
Dew
Point
Rel
Hum
%
Delta-T
°C
Wind Press
QNH
hPa
Press
MSL
hPa
Rain
since 9 am
mm
Dir
 
Spd
km/h
Gust
km/h
Spd
kts
Gust
kts
18/11:30pm 21.8 17.4 -2.1 20 10.5 W 11 11 6 6 1018.1 1016.2 0.0
18/11:00pm 21.5 17.6 -1.7 21 10.2 WNW 9 13 5 7 1018.2 1016.4 0.0
18/10:30pm 22.3 18.3 -2.4 19 10.9 W 9 11 5 6 1018.2 1016.4 0.0
18/10:00pm 23.9 19.9 -2.6 17 11.7 WSW 9 11 5 6 1018.3 1016.5 0.0
18/09:30pm 23.4 19.7 -3.0 17 11.6 NW 7 13 4 7 1018.1 1016.2 0.0
18/09:00pm 24.4 20.4 -2.2 17 11.9 NW 9 11 5 6 1018.0 1016.1 0.0
18/08:30pm 25.7 21.0 -2.0 16 12.6 W 13 17 7 9 1017.9 1016.0 0.0
18/08:00pm 26.5 21.4 -2.2 15 13.1 W 15 19 8 10 1017.6 1015.7 0.0
18/07:30pm 27.6 21.8 -1.3 15 13.5 W 19 22 10 12 1017.2 1015.3 0.0
18/07:00pm 28.4 21.6 -1.6 14 14.0 W 24 32 13 17 1016.7 1014.8 0.0
18/06:30pm 29.0 23.0 -1.2 14 14.3 W 20 26 11 14 1016.3 1014.4 0.0
18/06:00pm 29.9 23.5 -1.5 13 14.9 W 22 33 12 18 1015.7 1013.8 0.0
18/05:30pm 30.9 24.0 -3.0 11 15.8 W 24 33 13 18 1015.2 1013.3 0.0
18/05:00pm 32.1 25.9 -3.3 10 16.5 WNW 20 30 11 16 1014.9 1013.0 0.0
18/04:30pm 32.3 26.1 -3.2 10 16.6 WNW 20 22 11 12 1014.7 1012.8 0.0
18/04:00pm 32.9 26.8 -2.7 10 16.9 NNW 20 30 11 16 1014.6 1012.7 0.0
18/03:30pm 32.6 25.7 -2.9 10 16.8 WNW 24 43 13 23 1014.8 1012.9 0.0
18/03:00pm 32.7 26.7 -2.9 10 16.8 WNW 19 35 10 19 1014.9 1013.0 0.0
18/02:30pm 32.9 26.5 -1.4 11 16.6 WNW 22 39 12 21 1015.1 1013.2 0.0
18/02:00pm 32.8 25.9 -2.8 10 16.9 NNW 24 41 13 22 1015.2 1013.3 0.0
18/01:30pm 33.0 26.4 -0.2 12 16.4 NNW 24 35 13 19 1015.6 1013.7 0.0
18/01:00pm 32.3 25.4 0.4 13 15.9 NNW 26 44 14 24 1016.3 1014.4 0.0
18/12:30pm 31.0 25.3 -0.6 13 15.3 WNW 19 28 10 15 1016.7 1014.8 0.0
18/12:00pm 31.6 25.8 -0.1 13 15.6 W 20 33 11 18 1017.2 1015.3 0.0
18/11:30am 31.2 25.3 -0.5 13 15.4 NW 20 30 11 16 1017.7 1015.8 0.0
18/11:00am 29.7 24.2 2.1 17 13.9 W 20 30 11 16 1018.1 1016.2 0.0
18/10:30am 29.7 25.5 3.6 19 13.5 NW 15 22 8 12 1018.4 1016.6 0.0
18/10:00am 28.1 25.0 5.6 24 11.9 W 11 19 6 10 1018.8 1016.9 0.0
18/09:30am 27.1 26.0 7.0 28 10.9 WSW 2 7 1 4 1018.9 1017.0 0.0
18/09:00am 25.5 23.6 7.6 32 9.7 WSW 7 11 4 6 1019.0 1017.1 0.0
18/08:30am 24.6 22.6 7.3 33 9.3 W 7 11 4 6 1018.9 1017.0 0.0
18/08:00am 23.6 22.7 6.0 32 9.1 CALM 0 0 0 0 1018.7 1016.8 0.0
18/07:30am 21.8 19.5 4.8 33 8.5 E 6 7 3 4 1018.4 1016.6 0.0
18/07:00am 18.7 16.0 3.7 37 7.2 ENE 7 9 4 5 1018.0 1016.1 0.0
18/06:30am 15.7 12.5 3.2 43 5.8 E 9 11 5 6 1017.7 1015.8 0.0
18/06:00am 15.6 12.0 3.1 43 5.8 NE 11 13 6 7 1017.4 1015.5 0.0
18/05:30am 16.1 12.5 3.2 42 6.0 NE 11 13 6 7 1017.2 1015.3 0.0
18/05:00am 16.7 13.6 3.4 41 6.3 ENE 9 9 5 5 1017.0 1015.1 0.0
18/04:30am 16.3 13.0 2.3 39 6.4 E 9 11 5 6 1016.8 1014.9 0.0
18/04:00am 17.1 15.5 2.7 38 6.7 CALM 0 0 0 0 1016.7 1014.8 0.0
18/03:30am 17.9 16.2 1.9 34 7.4 CALM 0 6 0 3 1016.7 1014.8 0.0
18/03:00am 20.0 18.9 5.3 38 7.4 CALM 0 0 0 0 1016.7 1014.8 0.0
18/02:30am 20.7 18.1 4.3 34 8.1 SW 7 9 4 5 1016.7 1014.8 0.0
18/02:00am 22.5 19.8 5.4 33 8.7 W 9 13 5 7 1016.5 1014.6 0.0
18/01:30am 20.2 17.5 3.9 34 8.0 SE 7 9 4 5 1016.5 1014.6 0.0
18/01:00am 22.5 19.1 4.1 30 9.2 W 11 17 6 9 1016.6 1014.7 0.0
18/12:30am 21.1 18.3 2.9 30 8.8 W 7 9 4 5 1016.6 1014.7 0.0
18/12:00am 21.4 20.0 3.6 31 8.7 CALM 0 0 0 0 1016.9 1015.0 0.0
 
Date/Time
WST
Temp
°C
App
Temp
°C
Dew
Point
Rel
Hum
%
Delta-T
°C
Wind Press
QNH
hPa
Press
MSL
hPa
Rain
since 9 am
mm
Dir
 
Spd
km/h
Gust
km/h
Spd
kts
Gust
kts
17/11:30pm 22.3 20.1 3.4 29 9.3 NW 4 7 2 4 1017.0 1015.1 0.0
17/11:00pm 24.0 20.7 4.4 28 9.9 NW 11 13 6 7 1017.0 1015.1 0.0
17/10:30pm 24.6 21.3 4.4 27 10.3 WNW 11 13 6 7 1017.0 1015.1 0.0
17/10:00pm 25.7 22.4 4.8 26 10.8 NW 11 15 6 8 1017.2 1015.3 0.0
17/09:30pm 26.8 22.0 4.6 24 11.5 W 19 26 10 14 1017.0 1015.1 0.0
17/09:00pm 27.5 22.1 4.5 23 11.9 W 22 30 12 16 1016.8 1014.9 0.0
17/08:30pm 27.7 23.8 3.4 21 12.4 W 13 19 7 10 1016.5 1014.6 0.0
17/08:00pm 28.6 22.5 2.7 19 13.1 W 24 32 13 17 1015.8 1013.9 0.0
17/07:30pm 29.2 22.5 1.7 17 13.7 W 26 39 14 21 1015.3 1013.4 0.0
17/07:00pm 29.9 23.4 0.5 15 14.4 WNW 24 30 13 16 1014.6 1012.7 0.0
17/06:30pm 30.6 24.5 0.1 14 14.9 WNW 22 32 12 17 1014.0 1012.0 0.0
17/06:00pm 31.6 24.6 -3.7 10 16.3 WNW 24 32 13 17 1013.6 1011.6 0.0
17/05:30pm 32.6 24.9 -2.9 10 16.8 WNW 28 37 15 20 1013.1 1011.2 0.0
17/05:00pm 33.1 25.4 -2.6 10 17.0 WNW 28 41 15 22 1012.8 1010.9 0.0
17/04:30pm 33.8 26.8 -3.5 9 17.6 WNW 24 28 13 15 1012.5 1010.6 0.0
17/04:00pm 35.0 27.2 -4.1 8 18.4 NW 28 39 15 21 1012.4 1010.5 0.0
17/03:41pm 35.0 26.4 -4.1 8 18.4 N 32 50 17 27 1012.2 1010.3 0.0
17/03:30pm 35.2 28.0 -2.4 9 18.2 WNW 26 41 14 22 1012.3 1010.4 0.0
17/03:00pm 34.6 28.4 -2.9 9 18.0 WNW 20 35 11 19 1012.4 1010.5 0.0
17/02:30pm 35.2 27.6 -2.4 9 18.2 NW 28 43 15 23 1012.4 1010.5 0.0
17/02:16pm 34.9 26.5 -2.6 9 18.1 N 32 43 17 23 1012.7 1010.8 0.0
17/02:12pm 35.1 25.7 -2.5 9 18.2 NW 37 44 20 24 1012.5 1010.6 0.0
17/02:00pm 34.2 29.3 -3.2 9 17.8 WNW 13 22 7 12 1012.9 1011.0 0.0
17/01:30pm 35.2 26.6 -2.4 9 18.2 NW 33 43 18 23 1013.2 1011.3 0.0
17/01:01pm 34.2 26.5 -3.2 9 17.8 N 28 46 15 25 1013.8 1011.8 0.0
17/01:00pm 34.3 27.0 -3.1 9 17.8 N 26 39 14 21 1013.8 1011.8 0.0
17/12:30pm 33.9 26.1 -3.4 9 17.6 NNW 28 44 15 24 1014.3 1012.4 0.0
17/12:00pm 33.0 26.1 -2.6 10 16.9 WNW 24 35 13 19 1014.5 1012.6 0.0
17/11:30am 33.0 25.7 -2.6 10 16.9 WNW 26 39 14 21 1015.1 1013.2 0.0
17/11:00am 31.6 27.2 -2.4 11 16.1 W 11 20 6 11 1015.5 1013.6 0.0
17/10:30am 30.9 26.6 -1.8 12 15.5 W 11 19 6 10 1016.2 1014.3 0.0
17/10:00am 30.0 26.5 -1.4 13 14.9 WNW 7 13 4 7 1016.4 1014.5 0.0
17/09:30am 28.4 25.1 0.2 16 13.6 WSW 7 13 4 7 1016.6 1014.7 0.0
17/09:00am 27.6 25.0 3.3 21 12.3 NE 6 11 3 6 1016.6 1014.7 0.0
17/08:30am 26.2 24.1 5.7 27 10.8 E 6 9 3 5 1016.4 1014.5 0.0
17/08:00am 24.5 22.4 5.8 30 9.7 ENE 6 7 3 4 1016.1 1014.1 0.0
17/07:30am 22.3 20.8 4.8 32 8.8 ENE 2 6 1 3 1015.8 1013.9 0.0
17/07:00am 18.9 16.4 3.5 36 7.4 ENE 6 7 3 4 1015.7 1013.8 0.0
17/06:30am 16.1 12.9 2.9 41 6.1 NE 9 9 5 5 1015.3 1013.4 0.0
17/06:00am 15.8 12.1 2.2 40 6.2 NE 11 13 6 7 1015.1 1013.2 0.0
17/05:30am 16.8 13.6 2.8 39 6.5 NE 9 11 5 6 1014.7 1012.8 0.0
17/05:00am 17.3 13.7 2.9 38 6.7 NE 11 13 6 7 1014.6 1012.7 0.0
17/04:30am 17.7 15.0 2.8 37 7.0 ESE 6 9 3 5 1014.2 1012.3 0.0
17/04:00am 17.6 14.7 1.6 34 7.3 E 6 7 3 4 1014.0 1012.0 0.0
17/03:30am 18.0 14.9 1.5 33 7.6 E 7 9 4 5 1014.0 1012.0 0.0
17/03:00am 18.7 15.8 2.5 34 7.6 ESE 7 9 4 5 1014.1 1012.2 0.0
17/02:30am 19.1 17.0 2.0 32 8.0 W 2 7 1 4 1014.1 1012.2 0.0
17/02:00am 21.7 18.2 3.4 30 9.0 W 11 13 6 7 1014.1 1012.2 0.0
17/01:30am 20.8 19.5 4.0 33 8.3 CALM 0 0 0 0 1014.2 1012.3 0.0
17/01:00am 23.0 20.0 4.0 29 9.5 WNW 9 11 5 6 1014.3 1012.4 0.0
17/12:30am 23.6 20.5 3.5 27 10.0 W 9 11 5 6 1014.3 1012.4 0.0
17/12:00am 24.4 21.8 4.2 27 10.2 W 7 9 4 5 1014.6 1012.7 0.0
 
Date/Time
WST
Temp
°C
App
Temp
°C
Dew
Point
Rel
Hum
%
Delta-T
°C
Wind Press
QNH
hPa
Press
MSL
hPa
Rain
since 9 am
mm
Dir
 
Spd
km/h
Gust
km/h
Spd
kts
Gust
kts
16/11:30pm 24.7 22.0 3.9 26 10.5 WNW 7 11 4 6 1014.6 1012.7 0.0
16/11:00pm 24.6 21.8 3.3 25 10.6 NW 7 11 4 6 1014.5 1012.6 0.0
16/10:30pm 25.6 22.4 2.9 23 11.3 WNW 9 13 5 7 1014.5 1012.6 0.0
16/10:00pm 26.7 22.7 2.6 21 12.0 WNW 13 17 7 9 1014.4 1012.5 0.0
16/09:30pm 28.1 22.7 2.3 19 12.9 WNW 20 28 11 15 1014.0 1012.0 0.0
16/09:00pm 27.6 23.1 -0.5 16 13.3 W 13 17 7 9 1014.0 1012.0 0.0
16/08:30pm 27.3 23.8 -2.5 14 13.6 SW 6 7 3 4 1013.6 1011.6 0.0
16/08:00pm 29.0 25.0 -2.2 13 14.5 SSW 9 11 5 6 1012.9 1011.0 0.0

Other Formats:

Comma delimited format used in spreadsheet applications
http://www.bom.gov.au/fwo/IDW60801/IDW60801.94316.axf

JavaScript Object Notation format (JSON) in row-major order
http://www.bom.gov.au/fwo/IDW60801/IDW60801.94316.json